Weather History for Superior, WI

Change the Weather History Date:

Monday, January 16, 2012

  Actual Average Record
Temperature  
Mean Temperature 24 °F -  
Max Temperature 28 °F 18 °F 42 °F (1999)
Min Temperature 19 °F 1 °F -36 °F (1972)
Degree Days  
Heating Degree Days 42    
Moisture  
Dew Point 16 °F    
Average Humidity 68    
Maximum Humidity 93    
Minimum Humidity 50    
Precipitation  
Precipitation 0.00 in - - ()
Sea Level Pressure  
Sea Level Pressure 29.80 in    
Wind  
Wind Speed 5 mph (NW)    
Max Wind Speed 12 mph    
Max Gust Speed 21 mph    
Visibility 10 miles    
Events      
Averages and records for this station are not official NWS values.
T = Trace of Precipitation, MM = Missing Value Source: NWS Daily Summary

Daily Weather History Graph

Daily Weather History Graph

Search for Another Location

Airport:

Trip Planner

Search our weather history database for the weather conditions in past years. The results will help you decide how hot, cold, wet, or windy it might be!

Date:

Astronomy

Jan. 16, 2012 Rise Set
Actual Time 7:48 AM CST 4:48 PM CST
Civil Twilight 7:14 AM CST 5:22 PM CST
Nautical Twilight 6:36 AM CST 5:59 PM CST
Astronomical Twilight 6:00 AM CST 6:35 PM CST
Moon 12:50 AM CST 11:07 AM CST
Length of Visible Light 10h 07m
Length of Day
8h 59m
Last Quarter, 46% of the Moon is Illuminated
Jan 16
Last Quarter
Jan 23
New
Jan 30
First Quarter
Feb 7
Full
Feb 14
Last Quarter

Hourly Weather History & Observations

Time (CST) Temp. Windchill Dew Point Humidity Pressure Visibility Wind Dir Wind Speed Gust Speed Precip Events Conditions
12:15 AM 28.4 °F 24.6 °F 19.4 °F 69% 29.71 in 10.0 mi SW 3.5 mph - N/A   Clear
12:35 AM 28.4 °F - 19.4 °F 69% 29.70 in 10.0 mi Calm Calm - N/A   Clear
12:55 AM 28.4 °F 23.3 °F 21.2 °F 74% 29.71 in 10.0 mi SW 4.6 mph - N/A   Clear
1:15 AM 26.6 °F - 21.2 °F 80% 29.71 in 10.0 mi Calm Calm - N/A   Clear
1:35 AM 24.8 °F - 19.4 °F 80% 29.71 in 10.0 mi Calm Calm - N/A   Clear
1:55 AM 24.8 °F - 19.4 °F 80% 29.71 in 10.0 mi Calm Calm - N/A   Clear
2:15 AM 21.2 °F - 17.6 °F 86% 29.71 in 10.0 mi Calm Calm - N/A   Clear
2:35 AM 19.4 °F 14.3 °F 17.6 °F 93% 29.72 in 7.0 mi WSW 3.5 mph - N/A   Clear
2:55 AM 19.4 °F 14.3 °F 17.6 °F 93% 29.73 in 10.0 mi WSW 3.5 mph - N/A   Clear
3:15 AM 21.2 °F 16.4 °F 17.6 °F 86% 29.73 in 10.0 mi WSW 3.5 mph - N/A   Clear
3:35 AM 21.2 °F 16.4 °F 17.6 °F 86% 29.73 in 10.0 mi WSW 3.5 mph - N/A   Scattered Clouds
3:55 AM 26.6 °F 21.2 °F 19.4 °F 74% 29.73 in 10.0 mi WSW 4.6 mph - N/A   Overcast
4:15 AM 26.6 °F 22.6 °F 19.4 °F 74% 29.73 in 10.0 mi WSW 3.5 mph - N/A   Mostly Cloudy
4:35 AM 24.8 °F 19.1 °F 19.4 °F 80% 29.73 in 10.0 mi SSW 4.6 mph - N/A   Scattered Clouds
4:55 AM 24.8 °F 20.5 °F 19.4 °F 80% 29.73 in 10.0 mi SW 3.5 mph - N/A   Clear
5:15 AM 26.6 °F 20.0 °F 21.2 °F 80% 29.73 in 10.0 mi WSW 5.8 mph - N/A   Clear
5:35 AM 26.6 °F 19.1 °F 21.2 °F 80% 29.74 in 10.0 mi West 6.9 mph - N/A   Clear
5:55 AM 26.6 °F 21.2 °F 21.2 °F 80% 29.75 in 10.0 mi WNW 4.6 mph - N/A   Clear
6:15 AM 26.6 °F - 21.2 °F 80% 29.75 in 10.0 mi Calm Calm - N/A   Scattered Clouds
6:35 AM 26.6 °F 22.6 °F 21.2 °F 80% 29.75 in 10.0 mi WNW 3.5 mph - N/A   Mostly Cloudy
6:55 AM 26.6 °F 22.6 °F 21.2 °F 80% 29.75 in 10.0 mi NW 3.5 mph - N/A   Overcast
7:15 AM 26.6 °F 21.2 °F 19.4 °F 74% 29.75 in 10.0 mi NW 4.6 mph - N/A   Scattered Clouds
7:35 AM 26.6 °F 20.0 °F 19.4 °F 74% 29.77 in 10.0 mi WNW 5.8 mph - N/A   Scattered Clouds
7:55 AM 24.8 °F 19.1 °F 19.4 °F 80% 29.78 in 10.0 mi NW 4.6 mph - N/A   Scattered Clouds
8:15 AM 26.6 °F 17.5 °F 19.4 °F 74% 29.78 in 10.0 mi NNW 9.2 mph 18.4 mph N/A   Scattered Clouds
8:35 AM 24.8 °F 15.3 °F 17.6 °F 74% 29.80 in 10.0 mi NNW 9.2 mph - N/A   Clear
8:55 AM 24.8 °F 15.3 °F 15.8 °F 69% 29.81 in 10.0 mi NNW 9.2 mph 20.7 mph N/A   Clear
9:15 AM 24.8 °F 14.6 °F 15.8 °F 69% 29.82 in 10.0 mi NNW 10.4 mph - N/A   Clear
9:35 AM 24.8 °F 14.6 °F 15.8 °F 69% 29.82 in 10.0 mi NNW 10.4 mph - N/A   Clear
9:55 AM 26.6 °F 17.5 °F 15.8 °F 64% 29.83 in 10.0 mi NNW 9.2 mph - N/A   Clear
10:15 AM 26.6 °F 17.5 °F 15.8 °F 64% 29.84 in 10.0 mi NNW 9.2 mph - N/A   Clear
10:35 AM 26.6 °F 17.5 °F 15.8 °F 64% 29.84 in 10.0 mi WNW 9.2 mph - N/A   Clear
10:55 AM 26.6 °F 16.2 °F 15.8 °F 64% 29.85 in 10.0 mi NNW 11.5 mph - N/A   Clear
11:15 AM 26.6 °F 16.2 °F 14.0 °F 59% 29.84 in 10.0 mi NNW 11.5 mph 19.6 mph N/A   Clear
11:35 AM 26.6 °F 17.5 °F 12.2 °F 55% 29.84 in 10.0 mi North 9.2 mph - N/A   Clear
11:55 AM 26.6 °F 16.8 °F 12.2 °F 55% 29.84 in 10.0 mi NW 10.4 mph - N/A   Clear
12:15 PM 26.6 °F 18.2 °F 10.4 °F 51% 29.85 in 10.0 mi North 8.1 mph - N/A   Clear
12:35 PM 26.6 °F 17.5 °F 10.4 °F 51% 29.83 in 10.0 mi NW 9.2 mph - N/A   Clear
12:55 PM 24.8 °F 16.9 °F 10.4 °F 54% 29.84 in 10.0 mi North 6.9 mph - N/A   Clear
1:15 PM 24.8 °F 16.9 °F 10.4 °F 54% 29.84 in 10.0 mi NNW 6.9 mph - N/A   Clear
1:35 PM 26.6 °F 17.5 °F 10.4 °F 51% 29.84 in 10.0 mi WNW 9.2 mph - N/A   Clear
2:15 PM 24.8 °F 15.3 °F 10.4 °F 54% 29.87 in 10.0 mi NW 9.2 mph - N/A   Clear
2:35 PM 24.8 °F 14.0 °F 10.4 °F 54% 29.87 in 10.0 mi NNW 11.5 mph - N/A   Clear
2:55 PM 24.8 °F 16.1 °F 10.4 °F 54% 29.88 in 10.0 mi NW 8.1 mph - N/A   Clear
3:15 PM 24.8 °F 15.3 °F 10.4 °F 54% 29.88 in 10.0 mi NNW 9.2 mph - N/A   Clear
3:35 PM 24.8 °F 15.3 °F 8.6 °F 50% 29.87 in 10.0 mi North 9.2 mph - N/A   Clear
3:55 PM 24.8 °F 16.1 °F 10.4 °F 54% 29.87 in 10.0 mi North 8.1 mph - N/A   Clear
4:15 PM 24.8 °F 15.3 °F 10.4 °F 54% 29.90 in 10.0 mi North 9.2 mph - N/A   Clear
4:35 PM 23.0 °F 13.1 °F 10.4 °F 59% 29.91 in 10.0 mi North 9.2 mph - N/A   Clear
4:55 PM 21.2 °F 10.9 °F 8.6 °F 58% 29.93 in 10.0 mi NNW 9.2 mph 16.1 mph N/A   Clear
5:15 PM 21.2 °F 12.6 °F 10.4 °F 63% 29.93 in 10.0 mi NNW 6.9 mph - N/A   Clear
5:35 PM 21.2 °F 13.6 °F 8.6 °F 58% 29.93 in 10.0 mi North 5.8 mph - N/A   Clear
5:55 PM 21.2 °F 10.9 °F 10.4 °F 63% 29.94 in 10.0 mi North 9.2 mph - N/A   Clear
6:15 PM 21.2 °F 10.1 °F 10.4 °F 63% 29.95 in 10.0 mi North 10.4 mph - N/A   Clear
6:35 PM 21.2 °F 10.9 °F 8.6 °F 58% 29.96 in 10.0 mi North 9.2 mph 17.3 mph N/A   Clear
6:55 PM 21.2 °F 14.9 °F 8.6 °F 58% 29.96 in 10.0 mi North 4.6 mph - N/A   Clear
7:15 PM 19.4 °F 9.5 °F 8.6 °F 63% 29.96 in 10.0 mi North 8.1 mph - N/A   Scattered Clouds
7:35 PM 19.4 °F 9.5 °F 8.6 °F 63% 29.96 in 10.0 mi North 8.1 mph - N/A   Clear
7:55 PM 19.4 °F 11.5 °F 8.6 °F 63% 29.97 in 10.0 mi NNW 5.8 mph - N/A   Clear
8:15 PM 19.4 °F 9.5 °F 8.6 °F 63% 29.97 in 10.0 mi North 8.1 mph - N/A   Clear
8:35 PM 19.4 °F 7.2 °F 8.6 °F 63% 29.98 in 10.0 mi NNW 11.5 mph - N/A   Clear
8:55 PM 17.6 °F 6.4 °F 8.6 °F 68% 29.99 in 10.0 mi North 9.2 mph - N/A   Clear
9:15 PM 17.6 °F 9.3 °F 8.6 °F 68% 29.99 in 10.0 mi North 5.8 mph - N/A   Clear
9:35 PM 17.6 °F 10.7 °F 8.6 °F 68% 30.00 in 10.0 mi North 4.6 mph - N/A   Scattered Clouds
9:55 PM 17.6 °F 10.7 °F 8.6 °F 68% 29.99 in 10.0 mi North 4.6 mph - N/A   Clear
10:15 PM 17.6 °F 8.2 °F 8.6 °F 68% 30.00 in 10.0 mi North 6.9 mph - N/A   Clear
10:35 PM 17.6 °F 6.4 °F 8.6 °F 68% 30.01 in 10.0 mi North 9.2 mph - N/A   Mostly Cloudy
11:15 PM 17.6 °F 7.3 °F 6.8 °F 63% 30.02 in 10.0 mi North 8.1 mph - N/A   Overcast
11:35 PM 17.6 °F 8.2 °F 6.8 °F 63% 30.02 in 10.0 mi North 6.9 mph - N/A   Mostly Cloudy
11:55 PM 17.6 °F 9.3 °F 6.8 °F 63% 30.03 in 10.0 mi North 5.8 mph - N/A   Scattered Clouds